sensor_id;sensor_type;location;lat;lon;timestamp;P1;durP1;ratioP1;P2;durP2;ratioP2
81834;SDS011;71272;52.166;4.498;2024-03-17T00:00:19;10.57;;;3.80;;
81834;SDS011;71272;52.166;4.498;2024-03-17T00:02:45;9.80;;;4.07;;
81834;SDS011;71272;52.166;4.498;2024-03-17T00:05:11;12.35;;;3.55;;
81834;SDS011;71272;52.166;4.498;2024-03-17T00:07:38;7.43;;;3.38;;
81834;SDS011;71272;52.166;4.498;2024-03-17T00:10:03;8.13;;;2.85;;
81834;SDS011;71272;52.166;4.498;2024-03-17T00:12:29;9.30;;;3.20;;
81834;SDS011;71272;52.166;4.498;2024-03-17T00:14:54;7.55;;;3.40;;
81834;SDS011;71272;52.166;4.498;2024-03-17T00:17:20;10.40;;;4.30;;
81834;SDS011;71272;52.166;4.498;2024-03-17T00:19:46;9.63;;;3.53;;
81834;SDS011;71272;52.166;4.498;2024-03-17T00:22:11;7.00;;;3.28;;
81834;SDS011;71272;52.166;4.498;2024-03-17T00:24:39;7.68;;;2.75;;
81834;SDS011;71272;52.166;4.498;2024-03-17T00:27:05;9.77;;;2.78;;
81834;SDS011;71272;52.166;4.498;2024-03-17T00:29:31;8.77;;;4.28;;
81834;SDS011;71272;52.166;4.498;2024-03-17T00:31:57;9.50;;;2.78;;
81834;SDS011;71272;52.166;4.498;2024-03-17T00:34:22;7.63;;;2.80;;
81834;SDS011;71272;52.166;4.498;2024-03-17T00:36:48;14.00;;;3.65;;
81834;SDS011;71272;52.166;4.498;2024-03-17T00:39:13;14.27;;;3.60;;
81834;SDS011;71272;52.166;4.498;2024-03-17T00:41:39;8.23;;;2.75;;
81834;SDS011;71272;52.166;4.498;2024-03-17T00:44:05;6.95;;;2.60;;
81834;SDS011;71272;52.166;4.498;2024-03-17T00:46:31;9.75;;;2.47;;
81834;SDS011;71272;52.166;4.498;2024-03-17T00:48:56;10.18;;;2.85;;
81834;SDS011;71272;52.166;4.498;2024-03-17T00:51:23;6.43;;;2.38;;
81834;SDS011;71272;52.166;4.498;2024-03-17T00:53:48;7.87;;;2.93;;
81834;SDS011;71272;52.166;4.498;2024-03-17T00:56:14;7.82;;;2.72;;
81834;SDS011;71272;52.166;4.498;2024-03-17T00:58:39;6.57;;;2.50;;
81834;SDS011;71272;52.166;4.498;2024-03-17T01:01:05;6.50;;;2.97;;
81834;SDS011;71272;52.166;4.498;2024-03-17T01:03:30;7.43;;;3.30;;
81834;SDS011;71272;52.166;4.498;2024-03-17T01:05:55;8.97;;;3.10;;
81834;SDS011;71272;52.166;4.498;2024-03-17T01:08:21;8.43;;;3.53;;
81834;SDS011;71272;52.166;4.498;2024-03-17T01:10:46;6.87;;;3.07;;
81834;SDS011;71272;52.166;4.498;2024-03-17T01:13:15;9.65;;;3.42;;
81834;SDS011;71272;52.166;4.498;2024-03-17T01:15:41;7.15;;;3.53;;
81834;SDS011;71272;52.166;4.498;2024-03-17T01:18:07;9.23;;;2.97;;
81834;SDS011;71272;52.166;4.498;2024-03-17T01:20:34;9.02;;;3.20;;
81834;SDS011;71272;52.166;4.498;2024-03-17T01:23:01;10.55;;;3.85;;
81834;SDS011;71272;52.166;4.498;2024-03-17T01:25:26;9.27;;;3.47;;
81834;SDS011;71272;52.166;4.498;2024-03-17T01:27:52;9.77;;;3.60;;
81834;SDS011;71272;52.166;4.498;2024-03-17T01:30:18;12.18;;;4.10;;
81834;SDS011;71272;52.166;4.498;2024-03-17T01:32:44;8.75;;;3.60;;
81834;SDS011;71272;52.166;4.498;2024-03-17T01:35:10;6.38;;;3.90;;
81834;SDS011;71272;52.166;4.498;2024-03-17T01:37:36;9.25;;;4.20;;
81834;SDS011;71272;52.166;4.498;2024-03-17T01:40:02;10.32;;;4.38;;
81834;SDS011;71272;52.166;4.498;2024-03-17T01:42:29;11.48;;;4.38;;
81834;SDS011;71272;52.166;4.498;2024-03-17T01:44:55;10.17;;;4.13;;
81834;SDS011;71272;52.166;4.498;2024-03-17T01:47:20;11.53;;;4.73;;
81834;SDS011;71272;52.166;4.498;2024-03-17T01:49:46;13.43;;;5.30;;
81834;SDS011;71272;52.166;4.498;2024-03-17T01:52:12;12.02;;;5.07;;
81834;SDS011;71272;52.166;4.498;2024-03-17T01:54:39;15.02;;;4.90;;
81834;SDS011;71272;52.166;4.498;2024-03-17T01:57:05;10.38;;;4.65;;
81834;SDS011;71272;52.166;4.498;2024-03-17T01:59:30;15.02;;;5.63;;
81834;SDS011;71272;52.166;4.498;2024-03-17T02:01:56;10.23;;;5.07;;
81834;SDS011;71272;52.166;4.498;2024-03-17T02:04:22;11.00;;;5.38;;
81834;SDS011;71272;52.166;4.498;2024-03-17T02:06:47;12.32;;;5.38;;
81834;SDS011;71272;52.166;4.498;2024-03-17T02:09:12;13.40;;;5.27;;
81834;SDS011;71272;52.166;4.498;2024-03-17T02:11:38;13.32;;;5.68;;
81834;SDS011;71272;52.166;4.498;2024-03-17T02:14:03;12.68;;;5.00;;
81834;SDS011;71272;52.166;4.498;2024-03-17T02:16:31;13.80;;;4.68;;
81834;SDS011;71272;52.166;4.498;2024-03-17T02:18:56;9.13;;;4.80;;
81834;SDS011;71272;52.166;4.498;2024-03-17T02:21:23;12.73;;;5.60;;
81834;SDS011;71272;52.166;4.498;2024-03-17T02:23:50;12.35;;;5.35;;
81834;SDS011;71272;52.166;4.498;2024-03-17T02:26:16;8.23;;;4.93;;
81834;SDS011;71272;52.166;4.498;2024-03-17T02:28:42;12.32;;;4.95;;
81834;SDS011;71272;52.166;4.498;2024-03-17T02:31:08;13.88;;;5.72;;
81834;SDS011;71272;52.166;4.498;2024-03-17T02:33:35;11.25;;;5.38;;
81834;SDS011;71272;52.166;4.498;2024-03-17T02:36:01;13.23;;;5.28;;
81834;SDS011;71272;52.166;4.498;2024-03-17T02:38:29;10.95;;;4.72;;
81834;SDS011;71272;52.166;4.498;2024-03-17T02:41:13;11.90;;;5.88;;
81834;SDS011;71272;52.166;4.498;2024-03-17T02:43:38;11.70;;;5.63;;
81834;SDS011;71272;52.166;4.498;2024-03-17T02:46:03;9.33;;;5.30;;
81834;SDS011;71272;52.166;4.498;2024-03-17T02:48:30;12.65;;;5.68;;
81834;SDS011;71272;52.166;4.498;2024-03-17T02:50:56;11.93;;;6.15;;
81834;SDS011;71272;52.166;4.498;2024-03-17T02:53:21;12.23;;;6.03;;
81834;SDS011;71272;52.166;4.498;2024-03-17T02:55:47;13.73;;;6.63;;
81834;SDS011;71272;52.166;4.498;2024-03-17T02:58:12;12.67;;;6.17;;
81834;SDS011;71272;52.166;4.498;2024-03-17T03:00:38;22.47;;;5.00;;
81834;SDS011;71272;52.166;4.498;2024-03-17T03:03:05;8.93;;;4.95;;
81834;SDS011;71272;52.166;4.498;2024-03-17T03:05:30;11.77;;;5.50;;
81834;SDS011;71272;52.166;4.498;2024-03-17T03:07:55;11.47;;;6.03;;
81834;SDS011;71272;52.166;4.498;2024-03-17T03:10:21;11.13;;;5.35;;
81834;SDS011;71272;52.166;4.498;2024-03-17T03:12:46;11.18;;;4.95;;
81834;SDS011;71272;52.166;4.498;2024-03-17T03:15:12;13.57;;;6.23;;
81834;SDS011;71272;52.166;4.498;2024-03-17T03:17:37;14.70;;;5.90;;
81834;SDS011;71272;52.166;4.498;2024-03-17T03:20:03;11.48;;;5.78;;
81834;SDS011;71272;52.166;4.498;2024-03-17T03:22:30;12.38;;;5.95;;
81834;SDS011;71272;52.166;4.498;2024-03-17T03:24:56;12.18;;;6.10;;
81834;SDS011;71272;52.166;4.498;2024-03-17T03:27:21;11.73;;;6.77;;
81834;SDS011;71272;52.166;4.498;2024-03-17T03:29:46;11.60;;;5.13;;
81834;SDS011;71272;52.166;4.498;2024-03-17T03:32:12;10.93;;;5.47;;
81834;SDS011;71272;52.166;4.498;2024-03-17T03:34:37;12.33;;;6.23;;
81834;SDS011;71272;52.166;4.498;2024-03-17T03:37:04;13.90;;;6.35;;
81834;SDS011;71272;52.166;4.498;2024-03-17T03:39:32;10.73;;;5.38;;
81834;SDS011;71272;52.166;4.498;2024-03-17T03:41:57;7.90;;;5.63;;
81834;SDS011;71272;52.166;4.498;2024-03-17T03:44:22;12.53;;;5.63;;
81834;SDS011;71272;52.166;4.498;2024-03-17T03:46:47;10.87;;;5.40;;
81834;SDS011;71272;52.166;4.498;2024-03-17T03:49:13;11.37;;;5.93;;
81834;SDS011;71272;52.166;4.498;2024-03-17T03:51:38;13.45;;;7.28;;
81834;SDS011;71272;52.166;4.498;2024-03-17T03:54:04;12.02;;;5.93;;
81834;SDS011;71272;52.166;4.498;2024-03-17T03:56:31;13.48;;;6.03;;
81834;SDS011;71272;52.166;4.498;2024-03-17T03:58:56;11.63;;;5.88;;
81834;SDS011;71272;52.166;4.498;2024-03-17T04:01:22;12.80;;;6.60;;
81834;SDS011;71272;52.166;4.498;2024-03-17T04:03:47;12.30;;;6.27;;
81834;SDS011;71272;52.166;4.498;2024-03-17T04:06:14;9.60;;;5.15;;
81834;SDS011;71272;52.166;4.498;2024-03-17T04:08:41;13.63;;;6.78;;
81834;SDS011;71272;52.166;4.498;2024-03-17T04:11:07;10.90;;;5.90;;
81834;SDS011;71272;52.166;4.498;2024-03-17T04:13:32;11.40;;;5.45;;
81834;SDS011;71272;52.166;4.498;2024-03-17T04:15:58;12.82;;;6.28;;
81834;SDS011;71272;52.166;4.498;2024-03-17T04:18:25;10.93;;;6.15;;
81834;SDS011;71272;52.166;4.498;2024-03-17T04:20:52;11.82;;;5.97;;
81834;SDS011;71272;52.166;4.498;2024-03-17T04:23:19;11.80;;;6.72;;
81834;SDS011;71272;52.166;4.498;2024-03-17T04:25:46;12.00;;;5.82;;
81834;SDS011;71272;52.166;4.498;2024-03-17T04:28:12;11.82;;;6.07;;
81834;SDS011;71272;52.166;4.498;2024-03-17T04:30:39;14.23;;;7.00;;
81834;SDS011;71272;52.166;4.498;2024-03-17T04:33:04;11.73;;;6.47;;
81834;SDS011;71272;52.166;4.498;2024-03-17T04:35:31;11.05;;;6.40;;
81834;SDS011;71272;52.166;4.498;2024-03-17T04:38:01;11.35;;;6.20;;
81834;SDS011;71272;52.166;4.498;2024-03-17T04:40:26;12.70;;;6.70;;
81834;SDS011;71272;52.166;4.498;2024-03-17T04:42:51;12.10;;;6.27;;
81834;SDS011;71272;52.166;4.498;2024-03-17T04:45:17;9.70;;;5.53;;
81834;SDS011;71272;52.166;4.498;2024-03-17T04:47:42;14.07;;;6.57;;
81834;SDS011;71272;52.166;4.498;2024-03-17T04:50:08;11.88;;;6.22;;
81834;SDS011;71272;52.166;4.498;2024-03-17T04:52:33;11.18;;;5.97;;
81834;SDS011;71272;52.166;4.498;2024-03-17T04:54:59;10.87;;;6.10;;
81834;SDS011;71272;52.166;4.498;2024-03-17T04:57:24;13.03;;;6.60;;
81834;SDS011;71272;52.166;4.498;2024-03-17T04:59:49;13.50;;;7.50;;
81834;SDS011;71272;52.166;4.498;2024-03-17T05:02:15;16.37;;;7.60;;
81834;SDS011;71272;52.166;4.498;2024-03-17T05:04:40;14.40;;;6.93;;
81834;SDS011;71272;52.166;4.498;2024-03-17T05:07:07;13.45;;;6.47;;
81834;SDS011;71272;52.166;4.498;2024-03-17T05:09:34;13.25;;;6.97;;
81834;SDS011;71272;52.166;4.498;2024-03-17T05:11:59;13.27;;;6.27;;
81834;SDS011;71272;52.166;4.498;2024-03-17T05:14:24;11.40;;;6.13;;
81834;SDS011;71272;52.166;4.498;2024-03-17T05:16:51;13.35;;;5.93;;
81834;SDS011;71272;52.166;4.498;2024-03-17T05:19:16;12.20;;;6.70;;
81834;SDS011;71272;52.166;4.498;2024-03-17T05:21:43;14.13;;;6.65;;
81834;SDS011;71272;52.166;4.498;2024-03-17T05:24:11;11.25;;;6.75;;
81834;SDS011;71272;52.166;4.498;2024-03-17T05:26:37;10.73;;;6.38;;
81834;SDS011;71272;52.166;4.498;2024-03-17T05:29:03;14.63;;;7.75;;
81834;SDS011;71272;52.166;4.498;2024-03-17T05:31:28;11.57;;;6.55;;
81834;SDS011;71272;52.166;4.498;2024-03-17T05:33:54;12.52;;;6.65;;
81834;SDS011;71272;52.166;4.498;2024-03-17T05:36:20;12.55;;;6.57;;
81834;SDS011;71272;52.166;4.498;2024-03-17T05:38:46;12.85;;;7.13;;
81834;SDS011;71272;52.166;4.498;2024-03-17T05:41:12;11.77;;;6.63;;
81834;SDS011;71272;52.166;4.498;2024-03-17T05:43:38;14.18;;;7.05;;
81834;SDS011;71272;52.166;4.498;2024-03-17T05:46:07;12.88;;;7.00;;
81834;SDS011;71272;52.166;4.498;2024-03-17T05:48:34;11.52;;;7.10;;
81834;SDS011;71272;52.166;4.498;2024-03-17T05:51:03;13.07;;;6.90;;
81834;SDS011;71272;52.166;4.498;2024-03-17T05:53:28;13.13;;;6.60;;
81834;SDS011;71272;52.166;4.498;2024-03-17T05:55:54;13.07;;;7.03;;
81834;SDS011;71272;52.166;4.498;2024-03-17T05:58:20;12.63;;;7.20;;
81834;SDS011;71272;52.166;4.498;2024-03-17T06:00:45;13.82;;;6.97;;
81834;SDS011;71272;52.166;4.498;2024-03-17T06:03:11;13.65;;;7.07;;
81834;SDS011;71272;52.166;4.498;2024-03-17T06:05:37;12.43;;;6.93;;
81834;SDS011;71272;52.166;4.498;2024-03-17T06:08:05;15.82;;;7.43;;
81834;SDS011;71272;52.166;4.498;2024-03-17T06:10:33;13.52;;;7.43;;
81834;SDS011;71272;52.166;4.498;2024-03-17T06:12:59;15.60;;;7.63;;
81834;SDS011;71272;52.166;4.498;2024-03-17T06:15:25;13.45;;;7.13;;
81834;SDS011;71272;52.166;4.498;2024-03-17T06:17:51;20.27;;;7.13;;
81834;SDS011;71272;52.166;4.498;2024-03-17T06:20:18;12.93;;;7.35;;
81834;SDS011;71272;52.166;4.498;2024-03-17T06:22:43;13.30;;;6.93;;
81834;SDS011;71272;52.166;4.498;2024-03-17T06:25:10;10.77;;;6.65;;
81834;SDS011;71272;52.166;4.498;2024-03-17T06:27:36;12.48;;;6.85;;
81834;SDS011;71272;52.166;4.498;2024-03-17T06:30:02;15.88;;;6.80;;
81834;SDS011;71272;52.166;4.498;2024-03-17T06:32:29;12.32;;;7.03;;
81834;SDS011;71272;52.166;4.498;2024-03-17T06:37:21;11.50;;;6.10;;
81834;SDS011;71272;52.166;4.498;2024-03-17T06:39:47;14.30;;;6.20;;
81834;SDS011;71272;52.166;4.498;2024-03-17T06:42:13;11.53;;;6.30;;
81834;SDS011;71272;52.166;4.498;2024-03-17T06:44:38;15.55;;;6.57;;
81834;SDS011;71272;52.166;4.498;2024-03-17T06:47:04;10.75;;;5.57;;
81834;SDS011;71272;52.166;4.498;2024-03-17T06:49:30;10.23;;;5.95;;
81834;SDS011;71272;52.166;4.498;2024-03-17T06:51:55;10.52;;;6.05;;
81834;SDS011;71272;52.166;4.498;2024-03-17T06:54:21;13.37;;;6.27;;
81834;SDS011;71272;52.166;4.498;2024-03-17T06:56:47;13.02;;;6.63;;
81834;SDS011;71272;52.166;4.498;2024-03-17T06:59:12;13.77;;;6.50;;
81834;SDS011;71272;52.166;4.498;2024-03-17T07:01:37;13.07;;;6.47;;
81834;SDS011;71272;52.166;4.498;2024-03-17T07:04:03;9.23;;;5.33;;
81834;SDS011;71272;52.166;4.498;2024-03-17T07:06:28;10.70;;;5.90;;
81834;SDS011;71272;52.166;4.498;2024-03-17T07:08:54;11.10;;;6.22;;
81834;SDS011;71272;52.166;4.498;2024-03-17T07:11:20;16.00;;;6.88;;
81834;SDS011;71272;52.166;4.498;2024-03-17T07:13:48;14.50;;;7.20;;
81834;SDS011;71272;52.166;4.498;2024-03-17T07:16:16;10.70;;;6.45;;
81834;SDS011;71272;52.166;4.498;2024-03-17T07:18:41;12.18;;;6.55;;
81834;SDS011;71272;52.166;4.498;2024-03-17T07:21:08;10.93;;;6.20;;
81834;SDS011;71272;52.166;4.498;2024-03-17T07:23:35;11.23;;;6.65;;
81834;SDS011;71272;52.166;4.498;2024-03-17T07:26:01;10.98;;;5.80;;
81834;SDS011;71272;52.166;4.498;2024-03-17T07:28:27;11.45;;;6.60;;
81834;SDS011;71272;52.166;4.498;2024-03-17T07:30:54;12.88;;;6.75;;
81834;SDS011;71272;52.166;4.498;2024-03-17T07:33:20;12.48;;;7.07;;
81834;SDS011;71272;52.166;4.498;2024-03-17T07:35:51;14.27;;;7.32;;
81834;SDS011;71272;52.166;4.498;2024-03-17T07:38:18;12.38;;;6.53;;
81834;SDS011;71272;52.166;4.498;2024-03-17T07:40:44;12.35;;;6.75;;
81834;SDS011;71272;52.166;4.498;2024-03-17T07:43:10;9.63;;;5.93;;
81834;SDS011;71272;52.166;4.498;2024-03-17T07:45:36;12.88;;;7.22;;
81834;SDS011;71272;52.166;4.498;2024-03-17T07:48:02;13.43;;;7.03;;
81834;SDS011;71272;52.166;4.498;2024-03-17T07:50:27;13.50;;;7.27;;
81834;SDS011;71272;52.166;4.498;2024-03-17T07:52:53;14.30;;;6.20;;
81834;SDS011;71272;52.166;4.498;2024-03-17T07:55:18;13.27;;;6.40;;
81834;SDS011;71272;52.166;4.498;2024-03-17T07:57:43;11.57;;;6.60;;
81834;SDS011;71272;52.166;4.498;2024-03-17T08:00:09;11.77;;;6.57;;
81834;SDS011;71272;52.166;4.498;2024-03-17T08:02:46;12.40;;;6.57;;
81834;SDS011;71272;52.166;4.498;2024-03-17T08:05:12;16.85;;;8.02;;
81834;SDS011;71272;52.166;4.498;2024-03-17T08:07:38;13.93;;;6.82;;
81834;SDS011;71272;52.166;4.498;2024-03-17T08:10:04;11.75;;;6.93;;
81834;SDS011;71272;52.166;4.498;2024-03-17T08:12:30;10.30;;;6.13;;
81834;SDS011;71272;52.166;4.498;2024-03-17T08:14:55;13.52;;;7.65;;
81834;SDS011;71272;52.166;4.498;2024-03-17T08:17:20;17.83;;;7.20;;
81834;SDS011;71272;52.166;4.498;2024-03-17T08:19:47;12.52;;;6.90;;
81834;SDS011;71272;52.166;4.498;2024-03-17T08:22:13;12.75;;;6.72;;
81834;SDS011;71272;52.166;4.498;2024-03-17T08:24:39;11.75;;;7.38;;
81834;SDS011;71272;52.166;4.498;2024-03-17T08:27:05;13.63;;;7.35;;
81834;SDS011;71272;52.166;4.498;2024-03-17T08:29:30;13.93;;;7.77;;
81834;SDS011;71272;52.166;4.498;2024-03-17T08:31:55;13.87;;;6.97;;
81834;SDS011;71272;52.166;4.498;2024-03-17T08:34:20;11.67;;;6.80;;
81834;SDS011;71272;52.166;4.498;2024-03-17T08:36:46;11.07;;;6.63;;
81834;SDS011;71272;52.166;4.498;2024-03-17T08:39:11;9.93;;;6.57;;
81834;SDS011;71272;52.166;4.498;2024-03-17T08:41:37;12.52;;;7.35;;
81834;SDS011;71272;52.166;4.498;2024-03-17T08:44:02;13.60;;;6.95;;
81834;SDS011;71272;52.166;4.498;2024-03-17T08:46:27;14.30;;;7.18;;
81834;SDS011;71272;52.166;4.498;2024-03-17T08:48:53;12.43;;;6.73;;
81834;SDS011;71272;52.166;4.498;2024-03-17T08:51:18;10.67;;;6.77;;
81834;SDS011;71272;52.166;4.498;2024-03-17T08:53:44;13.60;;;7.22;;
81834;SDS011;71272;52.166;4.498;2024-03-17T08:56:09;13.07;;;6.70;;
81834;SDS011;71272;52.166;4.498;2024-03-17T08:58:35;14.05;;;7.78;;
81834;SDS011;71272;52.166;4.498;2024-03-17T09:01:03;12.57;;;6.78;;
81834;SDS011;71272;52.166;4.498;2024-03-17T09:03:32;14.40;;;6.97;;
81834;SDS011;71272;52.166;4.498;2024-03-17T09:06:01;14.35;;;7.30;;
81834;SDS011;71272;52.166;4.498;2024-03-17T09:08:26;11.68;;;6.47;;
81834;SDS011;71272;52.166;4.498;2024-03-17T09:10:53;13.88;;;6.65;;
81834;SDS011;71272;52.166;4.498;2024-03-17T09:13:20;12.63;;;6.72;;
81834;SDS011;71272;52.166;4.498;2024-03-17T09:16:00;14.68;;;6.93;;
81834;SDS011;71272;52.166;4.498;2024-03-17T09:18:26;10.98;;;6.35;;
81834;SDS011;71272;52.166;4.498;2024-03-17T09:20:59;11.77;;;5.95;;
81834;SDS011;71272;52.166;4.498;2024-03-17T09:23:27;11.30;;;6.50;;
81834;SDS011;71272;52.166;4.498;2024-03-17T09:25:56;12.80;;;6.85;;
81834;SDS011;71272;52.166;4.498;2024-03-17T09:28:33;11.35;;;6.88;;
81834;SDS011;71272;52.166;4.498;2024-03-17T09:30:59;12.77;;;6.65;;
81834;SDS011;71272;52.166;4.498;2024-03-17T09:33:25;11.13;;;6.35;;
81834;SDS011;71272;52.166;4.498;2024-03-17T09:35:52;11.85;;;7.28;;
81834;SDS011;71272;52.166;4.498;2024-03-17T09:41:05;11.82;;;6.68;;
81834;SDS011;71272;52.166;4.498;2024-03-17T09:46:03;10.88;;;6.03;;
81834;SDS011;71272;52.166;4.498;2024-03-17T09:48:30;11.98;;;6.45;;
81834;SDS011;71272;52.166;4.498;2024-03-17T09:50:59;11.68;;;5.30;;
81834;SDS011;71272;52.166;4.498;2024-03-17T09:53:29;13.48;;;6.35;;
81834;SDS011;71272;52.166;4.498;2024-03-17T09:56:03;12.95;;;6.25;;
81834;SDS011;71272;52.166;4.498;2024-03-17T09:58:33;12.43;;;6.03;;
81834;SDS011;71272;52.166;4.498;2024-03-17T10:00:59;12.32;;;6.20;;
81834;SDS011;71272;52.166;4.498;2024-03-17T10:06:10;12.00;;;6.53;;
81834;SDS011;71272;52.166;4.498;2024-03-17T10:08:46;10.38;;;6.15;;
81834;SDS011;71272;52.166;4.498;2024-03-17T10:11:11;10.50;;;6.15;;
81834;SDS011;71272;52.166;4.498;2024-03-17T10:13:41;9.32;;;5.75;;
81834;SDS011;71272;52.166;4.498;2024-03-17T10:16:17;10.00;;;6.40;;
81834;SDS011;71272;52.166;4.498;2024-03-17T10:18:47;10.90;;;6.50;;
81834;SDS011;71272;52.166;4.498;2024-03-17T10:21:27;9.67;;;5.90;;
81834;SDS011;71272;52.166;4.498;2024-03-17T10:24:18;9.70;;;6.00;;
81834;SDS011;71272;52.166;4.498;2024-03-17T10:26:47;13.35;;;6.22;;
81834;SDS011;71272;52.166;4.498;2024-03-17T10:29:22;10.48;;;5.53;;
81834;SDS011;71272;52.166;4.498;2024-03-17T10:31:56;9.50;;;5.82;;
81834;SDS011;71272;52.166;4.498;2024-03-17T10:34:42;11.57;;;6.43;;
81834;SDS011;71272;52.166;4.498;2024-03-17T10:39:36;13.25;;;6.72;;
81834;SDS011;71272;52.166;4.498;2024-03-17T10:42:03;12.43;;;5.15;;
81834;SDS011;71272;52.166;4.498;2024-03-17T10:44:30;11.05;;;6.13;;
81834;SDS011;71272;52.166;4.498;2024-03-17T10:46:57;11.40;;;6.18;;
81834;SDS011;71272;52.166;4.498;2024-03-17T10:49:33;10.00;;;6.03;;
81834;SDS011;71272;52.166;4.498;2024-03-17T10:52:01;10.30;;;6.32;;
81834;SDS011;71272;52.166;4.498;2024-03-17T10:54:33;11.27;;;5.90;;
81834;SDS011;71272;52.166;4.498;2024-03-17T10:59:48;11.68;;;6.05;;
81834;SDS011;71272;52.166;4.498;2024-03-17T11:02:23;12.52;;;6.00;;
81834;SDS011;71272;52.166;4.498;2024-03-17T11:04:53;11.07;;;5.90;;
81834;SDS011;71272;52.166;4.498;2024-03-17T11:07:20;12.82;;;5.82;;
81834;SDS011;71272;52.166;4.498;2024-03-17T11:09:47;11.65;;;6.90;;
81834;SDS011;71272;52.166;4.498;2024-03-17T11:20:15;11.45;;;6.22;;
81834;SDS011;71272;52.166;4.498;2024-03-17T11:22:48;11.40;;;6.03;;
81834;SDS011;71272;52.166;4.498;2024-03-17T11:27:52;11.57;;;6.07;;
81834;SDS011;71272;52.166;4.498;2024-03-17T11:33:27;10.95;;;6.28;;
81834;SDS011;71272;52.166;4.498;2024-03-17T11:38:55;12.55;;;6.07;;
81834;SDS011;71272;52.166;4.498;2024-03-17T11:46:51;13.18;;;6.35;;
81834;SDS011;71272;52.166;4.498;2024-03-17T11:49:23;9.50;;;5.70;;
81834;SDS011;71272;52.166;4.498;2024-03-17T11:51:53;10.60;;;6.32;;
81834;SDS011;71272;52.166;4.498;2024-03-17T11:54:21;11.00;;;6.00;;
81834;SDS011;71272;52.166;4.498;2024-03-17T11:56:49;11.40;;;5.90;;
81834;SDS011;71272;52.166;4.498;2024-03-17T11:59:16;14.90;;;6.97;;
81834;SDS011;71272;52.166;4.498;2024-03-17T12:01:43;11.27;;;6.50;;
81834;SDS011;71272;52.166;4.498;2024-03-17T12:04:10;10.60;;;6.15;;
81834;SDS011;71272;52.166;4.498;2024-03-17T12:06:37;11.48;;;6.05;;
81834;SDS011;71272;52.166;4.498;2024-03-17T12:12:03;15.38;;;7.05;;
81834;SDS011;71272;52.166;4.498;2024-03-17T12:14:32;9.93;;;5.63;;
81834;SDS011;71272;52.166;4.498;2024-03-17T12:17:00;10.63;;;5.82;;
81834;SDS011;71272;52.166;4.498;2024-03-17T12:19:26;9.93;;;5.82;;
81834;SDS011;71272;52.166;4.498;2024-03-17T12:21:53;13.07;;;5.40;;
81834;SDS011;71272;52.166;4.498;2024-03-17T12:24:24;13.80;;;5.90;;
81834;SDS011;71272;52.166;4.498;2024-03-17T12:26:51;12.43;;;5.45;;
81834;SDS011;71272;52.166;4.498;2024-03-17T12:29:22;10.77;;;5.15;;
81834;SDS011;71272;52.166;4.498;2024-03-17T12:31:50;11.60;;;5.20;;
81834;SDS011;71272;52.166;4.498;2024-03-17T12:34:17;13.52;;;6.68;;
81834;SDS011;71272;52.166;4.498;2024-03-17T12:36:44;11.63;;;5.93;;
81834;SDS011;71272;52.166;4.498;2024-03-17T12:44:30;10.10;;;5.05;;
81834;SDS011;71272;52.166;4.498;2024-03-17T12:46:57;12.40;;;5.75;;
81834;SDS011;71272;52.166;4.498;2024-03-17T12:49:25;10.90;;;5.93;;
81834;SDS011;71272;52.166;4.498;2024-03-17T12:51:51;10.43;;;5.97;;
81834;SDS011;71272;52.166;4.498;2024-03-17T12:54:19;9.60;;;4.70;;
81834;SDS011;71272;52.166;4.498;2024-03-17T12:56:45;8.73;;;4.40;;
81834;SDS011;71272;52.166;4.498;2024-03-17T13:02:22;11.43;;;5.13;;
81834;SDS011;71272;52.166;4.498;2024-03-17T13:05:06;10.10;;;4.47;;
81834;SDS011;71272;52.166;4.498;2024-03-17T13:07:45;13.30;;;4.80;;
81834;SDS011;71272;52.166;4.498;2024-03-17T13:10:14;10.70;;;5.38;;
81834;SDS011;71272;52.166;4.498;2024-03-17T13:12:41;11.10;;;4.90;;
81834;SDS011;71272;52.166;4.498;2024-03-17T13:15:14;9.27;;;4.90;;
81834;SDS011;71272;52.166;4.498;2024-03-17T13:17:44;10.48;;;5.03;;
81834;SDS011;71272;52.166;4.498;2024-03-17T13:20:13;9.32;;;4.82;;
81834;SDS011;71272;52.166;4.498;2024-03-17T13:22:43;12.27;;;5.10;;
81834;SDS011;71272;52.166;4.498;2024-03-17T13:25:19;11.93;;;5.00;;
81834;SDS011;71272;52.166;4.498;2024-03-17T13:27:47;8.30;;;4.30;;
81834;SDS011;71272;52.166;4.498;2024-03-17T13:30:13;14.35;;;5.28;;
81834;SDS011;71272;52.166;4.498;2024-03-17T13:32:40;11.40;;;4.53;;
81834;SDS011;71272;52.166;4.498;2024-03-17T13:35:13;9.82;;;4.50;;
81834;SDS011;71272;52.166;4.498;2024-03-17T13:37:40;11.13;;;5.00;;
81834;SDS011;71272;52.166;4.498;2024-03-17T13:40:05;14.23;;;4.53;;
81834;SDS011;71272;52.166;4.498;2024-03-17T13:42:31;7.50;;;4.22;;
81834;SDS011;71272;52.166;4.498;2024-03-17T13:44:57;11.13;;;4.68;;
81834;SDS011;71272;52.166;4.498;2024-03-17T13:47:22;10.53;;;4.00;;
81834;SDS011;71272;52.166;4.498;2024-03-17T13:49:47;9.93;;;4.70;;
81834;SDS011;71272;52.166;4.498;2024-03-17T13:52:13;13.53;;;5.73;;
81834;SDS011;71272;52.166;4.498;2024-03-17T13:54:38;10.55;;;4.70;;
81834;SDS011;71272;52.166;4.498;2024-03-17T13:57:03;10.67;;;4.23;;
81834;SDS011;71272;52.166;4.498;2024-03-17T13:59:29;11.18;;;4.63;;
81834;SDS011;71272;52.166;4.498;2024-03-17T14:01:55;10.77;;;4.60;;
81834;SDS011;71272;52.166;4.498;2024-03-17T14:04:21;11.13;;;4.13;;
81834;SDS011;71272;52.166;4.498;2024-03-17T14:06:46;12.00;;;4.40;;
81834;SDS011;71272;52.166;4.498;2024-03-17T14:11:40;7.88;;;4.07;;
81834;SDS011;71272;52.166;4.498;2024-03-17T14:14:05;9.93;;;4.80;;
81834;SDS011;71272;52.166;4.498;2024-03-17T14:16:31;8.67;;;3.63;;
81834;SDS011;71272;52.166;4.498;2024-03-17T14:18:59;7.95;;;3.70;;
81834;SDS011;71272;52.166;4.498;2024-03-17T14:21:26;10.63;;;3.70;;
81834;SDS011;71272;52.166;4.498;2024-03-17T14:23:52;8.82;;;4.32;;
81834;SDS011;71272;52.166;4.498;2024-03-17T14:26:18;12.40;;;3.78;;
81834;SDS011;71272;52.166;4.498;2024-03-17T14:28:43;10.48;;;3.97;;
81834;SDS011;71272;52.166;4.498;2024-03-17T14:31:08;8.33;;;3.63;;
81834;SDS011;71272;52.166;4.498;2024-03-17T14:33:34;10.15;;;3.88;;
81834;SDS011;71272;52.166;4.498;2024-03-17T14:35:59;8.20;;;3.70;;
81834;SDS011;71272;52.166;4.498;2024-03-17T14:38:25;7.60;;;3.75;;
81834;SDS011;71272;52.166;4.498;2024-03-17T14:40:51;8.40;;;4.40;;
81834;SDS011;71272;52.166;4.498;2024-03-17T14:43:17;11.38;;;4.35;;
81834;SDS011;71272;52.166;4.498;2024-03-17T14:45:42;12.10;;;4.43;;
81834;SDS011;71272;52.166;4.498;2024-03-17T14:48:07;12.40;;;5.77;;
81834;SDS011;71272;52.166;4.498;2024-03-17T14:50:34;11.77;;;5.15;;
81834;SDS011;71272;52.166;4.498;2024-03-17T14:53:01;10.77;;;4.47;;
81834;SDS011;71272;52.166;4.498;2024-03-17T14:55:26;9.93;;;4.60;;
81834;SDS011;71272;52.166;4.498;2024-03-17T14:57:51;14.13;;;4.87;;
81834;SDS011;71272;52.166;4.498;2024-03-17T15:00:17;11.50;;;4.77;;
81834;SDS011;71272;52.166;4.498;2024-03-17T15:02:44;11.30;;;4.80;;
81834;SDS011;71272;52.166;4.498;2024-03-17T15:05:11;11.82;;;4.95;;
81834;SDS011;71272;52.166;4.498;2024-03-17T15:07:37;9.10;;;4.70;;
81834;SDS011;71272;52.166;4.498;2024-03-17T15:10:03;9.63;;;4.93;;
81834;SDS011;71272;52.166;4.498;2024-03-17T15:12:30;11.32;;;4.80;;
81834;SDS011;71272;52.166;4.498;2024-03-17T15:14:55;13.10;;;5.43;;
81834;SDS011;71272;52.166;4.498;2024-03-17T15:17:21;14.30;;;6.00;;
81834;SDS011;71272;52.166;4.498;2024-03-17T15:19:46;14.00;;;5.60;;
81834;SDS011;71272;52.166;4.498;2024-03-17T15:22:12;14.45;;;6.30;;
81834;SDS011;71272;52.166;4.498;2024-03-17T15:24:37;10.83;;;5.30;;
81834;SDS011;71272;52.166;4.498;2024-03-17T15:27:02;9.50;;;5.70;;